Terminal Aerodrome Forecast
Issued by NWS Charleston, WV

Home | Current Version | Previous Version | Text Only | Print | Product List | Glossary On
Versions: 1 2 3 4 5 6 7 8 9 10 11 12 13 14 15 16 17 18 19 20 21 22 23 24 25 26 27
000
FTUS41 KRLX 260500
TAFCRW
TAF
KCRW 260538Z 2606/2706 36006KT 4SM SHRA BR OVC004
     FM260800 36004KT 6SM BR OVC008
     FM260900 35004KT P6SM OVC015
     FM261400 35005KT P6SM BKN025
     FM261700 35006KT P6SM BKN040
     FM262100 34008KT P6SM SCT060=

USA.gov is the U.S. government's official web portal to all federal, state and local government web resources and services.